createdAt,value
2022-08-12T00:02:12.017Z,22.80
2022-08-12T00:05:00.468Z,22.80
2022-08-12T00:07:47.369Z,22.80
2022-08-12T00:10:34.018Z,22.80
2022-08-12T00:13:19.723Z,22.80
2022-08-12T00:16:09.318Z,22.80
2022-08-12T00:18:58.195Z,22.80
2022-08-12T00:21:46.553Z,22.80
2022-08-12T00:24:33.412Z,22.80
2022-08-12T00:27:18.930Z,22.70
2022-08-12T00:30:06.465Z,22.80
2022-08-12T00:32:54.871Z,22.70
2022-08-12T00:35:43.710Z,22.70
2022-08-12T00:38:32.480Z,22.70
2022-08-12T00:41:20.536Z,22.70
2022-08-12T00:43:50.575Z,22.70
2022-08-12T00:46:38.353Z,22.70
2022-08-12T00:49:08.686Z,22.70
2022-08-12T00:51:58.149Z,22.60
2022-08-12T00:54:25.256Z,22.60
2022-08-12T00:56:55.303Z,22.60
2022-08-12T00:59:25.324Z,22.60
2022-08-12T01:02:10.691Z,22.60
2022-08-12T01:05:27.875Z,22.60
2022-08-12T01:08:16.927Z,22.50
2022-08-12T01:11:04.491Z,22.50
2022-08-12T01:13:36.332Z,22.50
2022-08-12T01:16:07.748Z,22.50
2022-08-12T01:18:39.983Z,22.50
2022-08-12T01:21:41.766Z,22.40
2022-08-12T01:24:30.790Z,22.40
2022-08-12T01:26:59.848Z,22.40
2022-08-12T01:29:35.163Z,22.40
2022-08-12T01:32:10.546Z,22.40
2022-08-12T01:34:39.738Z,22.40
2022-08-12T01:37:10.188Z,22.30
2022-08-12T01:40:33.444Z,22.40
2022-08-12T01:42:47.876Z,22.30
2022-08-12T01:45:23.050Z,22.30
2022-08-12T01:48:29.231Z,22.30
2022-08-12T01:51:04.571Z,22.30
2022-08-12T01:53:50.846Z,22.30
2022-08-12T01:56:26.083Z,22.30
2022-08-12T01:59:20.007Z,22.20
2022-08-12T02:01:53.440Z,22.20
2022-08-12T02:05:03.804Z,22.20
2022-08-12T02:08:27.174Z,22.20
2022-08-12T02:11:32.679Z,22.20
2022-08-12T02:14:57.367Z,22.20
2022-08-12T02:17:56.404Z,22.10
2022-08-12T02:20:35.478Z,22.10
2022-08-12T02:23:28.190Z,22.10
2022-08-12T02:26:09.472Z,22.00
2022-08-12T02:28:38.894Z,22.00
2022-08-12T02:31:09.132Z,22.00
2022-08-12T02:33:38.115Z,22.00
2022-08-12T02:36:08.768Z,22.00
2022-08-12T02:38:37.915Z,22.00
2022-08-12T02:41:10.093Z,22.00
2022-08-12T02:43:48.963Z,22.00
2022-08-12T02:46:34.461Z,22.00
2022-08-12T02:49:14.786Z,22.00
2022-08-12T02:51:45.595Z,22.00
2022-08-12T02:54:13.115Z,22.00
2022-08-12T02:56:50.693Z,22.00
2022-08-12T02:59:23.027Z,22.00
2022-08-12T03:01:56.077Z,22.00
2022-08-12T03:04:44.635Z,22.00
2022-08-12T03:07:17.949Z,22.00
2022-08-12T03:10:12.177Z,22.00
2022-08-12T03:12:49.884Z,22.00
2022-08-12T03:15:24.049Z,22.00
2022-08-12T03:18:28.955Z,22.00
2022-08-12T03:21:01.465Z,22.00
2022-08-12T03:23:31.568Z,22.00
2022-08-12T03:26:02.750Z,21.90
2022-08-12T03:28:50.735Z,21.90
2022-08-12T03:31:24.760Z,21.90
2022-08-12T03:34:02.166Z,21.90
2022-08-12T03:36:35.045Z,21.90
2022-08-12T03:39:16.481Z,21.90
2022-08-12T03:42:09.382Z,21.90
2022-08-12T03:45:30.928Z,21.90
2022-08-12T03:48:31.719Z,21.90
2022-08-12T03:51:17.999Z,21.80
2022-08-12T03:54:06.486Z,21.80
2022-08-12T03:56:53.971Z,21.80
2022-08-12T03:59:39.228Z,21.80
2022-08-12T04:02:08.262Z,21.80
2022-08-12T04:04:35.990Z,21.70
2022-08-12T04:07:08.534Z,21.70
2022-08-12T04:09:40.804Z,21.70
2022-08-12T04:12:27.140Z,21.60
2022-08-12T04:15:00.942Z,21.60
2022-08-12T04:17:28.848Z,21.60
2022-08-12T04:19:57.955Z,21.60
2022-08-12T04:22:29.895Z,21.50
2022-08-12T04:25:02.000Z,21.50
2022-08-12T04:27:32.302Z,21.50
2022-08-12T04:30:29.654Z,21.50
2022-08-12T04:32:53.859Z,21.50
2022-08-12T04:35:24.125Z,21.50
2022-08-12T04:37:58.312Z,21.50
2022-08-12T04:40:33.325Z,21.50
2022-08-12T04:43:04.370Z,21.50
2022-08-12T04:45:37.598Z,21.50
2022-08-12T04:48:10.653Z,21.50
2022-08-12T04:50:39.133Z,21.50
2022-08-12T04:53:08.551Z,21.60
2022-08-12T04:55:38.095Z,21.60
2022-08-12T04:58:05.582Z,21.60
2022-08-12T05:00:36.279Z,21.60
2022-08-12T05:03:07.547Z,21.60
2022-08-12T05:05:40.731Z,21.60
2022-08-12T05:08:17.403Z,21.60
2022-08-12T05:10:47.451Z,21.60
2022-08-12T05:13:31.814Z,21.60
2022-08-12T05:16:04.421Z,21.60
2022-08-12T05:18:40.051Z,21.60
2022-08-12T05:21:10.222Z,21.60
2022-08-12T05:23:40.595Z,21.70
2022-08-12T05:26:09.284Z,21.70
2022-08-12T05:28:38.517Z,21.70
2022-08-12T05:31:05.792Z,21.70
2022-08-12T05:33:40.258Z,21.70
2022-08-12T05:36:15.240Z,21.80
2022-08-12T05:38:57.122Z,21.80
2022-08-12T05:41:30.160Z,21.80
2022-08-12T05:44:00.966Z,21.80
2022-08-12T05:46:29.966Z,21.90
2022-08-12T05:49:00.872Z,21.80
2022-08-12T05:51:41.281Z,21.90
2022-08-12T05:54:12.065Z,21.90
2022-08-12T05:56:41.717Z,21.90
2022-08-12T05:59:12.649Z,21.90
2022-08-12T06:02:09.424Z,21.90
2022-08-12T06:04:31.518Z,22.00
2022-08-12T06:06:58.914Z,22.00
2022-08-12T06:09:28.724Z,22.10
2022-08-12T06:12:04.845Z,22.10
2022-08-12T06:14:37.785Z,22.10
2022-08-12T06:17:10.244Z,22.20
2022-08-12T06:20:27.147Z,22.30
2022-08-12T06:22:26.754Z,22.30
2022-08-12T06:24:54.150Z,22.40
2022-08-12T06:27:22.395Z,22.50
2022-08-12T06:30:09.913Z,22.60
2022-08-12T06:32:51.632Z,22.60
2022-08-12T06:35:48.569Z,22.70
2022-08-12T06:38:19.482Z,22.70
2022-08-12T06:41:10.857Z,22.80
2022-08-12T06:44:06.688Z,22.80
2022-08-12T06:46:28.837Z,22.90
2022-08-12T06:48:59.314Z,23.00
2022-08-12T06:51:35.558Z,23.20
2022-08-12T06:54:06.324Z,23.40
2022-08-12T06:59:27.629Z,23.60
2022-08-12T07:01:55.681Z,23.80
2022-08-12T07:04:39.202Z,24.00
2022-08-12T07:07:09.352Z,24.20
2022-08-12T07:10:01.262Z,24.30
2022-08-12T07:12:30.207Z,24.50
2022-08-12T07:15:03.585Z,24.60
2022-08-12T07:17:37.691Z,24.80
2022-08-12T07:20:20.090Z,25.00
2022-08-12T07:22:57.843Z,25.20
2022-08-12T07:25:40.515Z,25.40
2022-08-12T07:28:23.731Z,25.50
2022-08-12T07:30:53.644Z,25.70
2022-08-12T07:33:39.019Z,25.90
2022-08-12T07:36:14.138Z,26.10
2022-08-12T07:38:46.853Z,26.20
2022-08-12T07:41:19.534Z,26.30
2022-08-12T07:43:48.213Z,26.40
2022-08-12T07:46:23.614Z,26.60
2022-08-12T07:48:57.379Z,26.70
2022-08-12T07:51:30.567Z,26.80
2022-08-12T07:54:02.942Z,26.80
2022-08-12T07:56:31.447Z,26.90
2022-08-12T07:59:01.189Z,26.90
2022-08-12T08:01:39.138Z,27.00
2022-08-12T08:04:27.582Z,27.20
2022-08-12T08:06:55.719Z,27.30
2022-08-12T08:09:24.183Z,27.60
2022-08-12T08:12:18.733Z,27.80
2022-08-12T08:14:55.951Z,28.10
2022-08-12T08:17:26.034Z,28.40
2022-08-12T08:20:03.770Z,28.70
2022-08-12T08:22:42.028Z,28.80
2022-08-12T08:25:34.484Z,29.10
2022-08-12T08:28:09.264Z,29.30
2022-08-12T08:30:44.027Z,29.50
2022-08-12T08:33:22.704Z,29.70
2022-08-12T08:35:54.657Z,29.90
2022-08-12T08:38:31.945Z,30.20
2022-08-12T08:42:17.639Z,30.40
2022-08-12T08:44:13.117Z,30.70
2022-08-12T08:46:44.600Z,31.00
2022-08-12T08:49:12.541Z,31.30
2022-08-12T08:51:39.796Z,31.50
2022-08-12T08:54:12.629Z,31.60
2022-08-12T08:56:44.760Z,31.80
2022-08-12T08:59:14.143Z,31.90
2022-08-12T09:01:44.462Z,32.10
2022-08-12T09:05:07.917Z,32.20
2022-08-12T09:07:18.182Z,32.30
2022-08-12T09:13:02.098Z,32.50
2022-08-12T09:15:41.482Z,32.60
2022-08-12T09:18:11.868Z,32.70
2022-08-12T09:20:42.437Z,32.70
2022-08-12T09:23:59.926Z,32.70
2022-08-12T09:26:04.900Z,32.90
2022-08-12T09:28:33.580Z,32.90
2022-08-12T09:31:02.215Z,33.00
2022-08-12T09:34:26.572Z,33.10
2022-08-12T09:36:31.125Z,33.10
2022-08-12T09:40:01.346Z,33.20
2022-08-12T09:42:38.956Z,33.30
2022-08-12T09:45:24.461Z,33.50
2022-08-12T09:48:10.241Z,33.60
2022-08-12T09:50:55.249Z,33.60
2022-08-12T09:53:36.467Z,33.60
2022-08-12T09:56:58.851Z,33.60
2022-08-12T09:59:10.176Z,33.60
2022-08-12T10:02:44.049Z,33.70
2022-08-12T10:04:30.359Z,33.70
2022-08-12T10:07:03.197Z,34.00
2022-08-12T10:09:56.925Z,34.10
2022-08-12T10:12:37.785Z,34.40
2022-08-12T10:15:05.057Z,34.50
2022-08-12T10:17:33.440Z,34.50
2022-08-12T10:20:13.617Z,34.40
2022-08-12T10:23:03.777Z,34.30
2022-08-12T10:26:34.179Z,34.30
2022-08-12T10:29:02.668Z,34.40
2022-08-12T10:31:46.913Z,34.60
2022-08-12T10:34:27.040Z,35.00
2022-08-12T10:37:01.151Z,35.20
2022-08-12T10:40:08.153Z,35.40
2022-08-12T10:43:00.714Z,35.70
2022-08-12T10:45:31.310Z,35.90
2022-08-12T10:48:19.349Z,36.00
2022-08-12T10:51:01.045Z,36.00
2022-08-12T10:53:45.504Z,36.00
2022-08-12T10:56:17.329Z,36.10
2022-08-12T10:58:48.060Z,36.00
2022-08-12T11:01:49.332Z,36.10
2022-08-12T11:04:27.264Z,36.10
2022-08-12T11:08:38.753Z,36.10
2022-08-12T11:10:01.851Z,36.10
2022-08-12T11:12:55.374Z,36.10
2022-08-12T11:15:33.135Z,36.20
2022-08-12T11:18:11.945Z,36.40
2022-08-12T11:20:48.885Z,36.50
2022-08-12T11:23:25.554Z,36.50
2022-08-12T11:26:07.021Z,36.50
2022-08-12T11:28:38.213Z,36.50
2022-08-12T11:31:12.310Z,36.50
2022-08-12T11:34:04.820Z,36.50
2022-08-12T11:36:39.336Z,36.40
2022-08-12T11:39:12.439Z,36.40
2022-08-12T11:41:43.012Z,36.50
2022-08-12T11:44:35.869Z,36.40
2022-08-12T11:47:00.451Z,36.20
2022-08-12T11:49:31.497Z,36.00
2022-08-12T11:52:17.613Z,35.90
2022-08-12T11:54:54.378Z,35.70
2022-08-12T11:58:07.368Z,35.50
2022-08-12T12:02:56.767Z,35.30
2022-08-12T12:05:39.701Z,35.10
2022-08-12T12:08:41.166Z,35.10
2022-08-12T12:11:12.719Z,34.90
2022-08-12T12:14:08.866Z,34.90
2022-08-12T12:16:30.511Z,34.90
2022-08-12T12:18:59.671Z,34.90
2022-08-12T12:21:47.058Z,34.90
2022-08-12T12:24:13.791Z,34.90
2022-08-12T12:26:48.215Z,34.90
2022-08-12T12:30:19.965Z,34.90
2022-08-12T12:32:28.880Z,34.70
2022-08-12T12:35:14.082Z,34.60
2022-08-12T12:38:12.389Z,34.40
2022-08-12T12:40:44.146Z,34.40
2022-08-12T12:43:15.355Z,34.30
2022-08-12T12:45:46.584Z,34.30
2022-08-12T12:48:18.469Z,34.20
2022-08-12T12:51:13.359Z,34.20
2022-08-12T12:54:06.919Z,34.10
2022-08-12T12:56:34.711Z,34.00
2022-08-12T12:59:06.967Z,34.00
2022-08-12T13:02:02.119Z,33.90
2022-08-12T13:04:38.172Z,33.90
2022-08-12T13:07:08.090Z,33.70
2022-08-12T13:09:38.078Z,33.50
2022-08-12T13:12:10.872Z,33.20
2022-08-12T13:14:41.023Z,32.80
2022-08-12T13:17:14.714Z,32.40
2022-08-12T13:19:46.974Z,32.10
2022-08-12T13:22:21.094Z,31.90
2022-08-12T13:24:56.616Z,31.80
2022-08-12T13:27:36.337Z,31.70
2022-08-12T13:30:13.134Z,31.50
2022-08-12T13:32:56.901Z,31.20
2022-08-12T13:35:33.544Z,31.00
2022-08-12T13:38:26.540Z,30.90
2022-08-12T13:40:56.025Z,30.80
2022-08-12T13:43:40.973Z,30.70
2022-08-12T13:46:14.836Z,30.60
2022-08-12T13:48:45.726Z,30.50
2022-08-12T13:51:15.067Z,30.30
2022-08-12T13:53:57.777Z,30.20
2022-08-12T13:56:30.560Z,30.10
2022-08-12T13:59:07.882Z,29.90
2022-08-12T14:01:40.652Z,29.80
2022-08-12T14:04:11.903Z,29.60
2022-08-12T14:06:40.679Z,29.50
2022-08-12T14:09:17.694Z,29.50
2022-08-12T14:11:58.945Z,29.40
2022-08-12T14:14:31.756Z,29.30
2022-08-12T14:17:09.762Z,29.30
2022-08-12T14:20:00.903Z,29.40
2022-08-12T14:22:38.197Z,29.30
2022-08-12T14:25:07.612Z,29.20
2022-08-12T14:28:04.621Z,29.10
2022-08-12T14:30:29.351Z,29.10
2022-08-12T14:33:03.491Z,29.30
2022-08-12T14:35:41.382Z,29.40
2022-08-12T14:38:26.256Z,29.50
2022-08-12T14:40:58.754Z,29.60
2022-08-12T14:43:59.051Z,29.60
2022-08-12T14:46:27.911Z,29.60
2022-08-12T14:48:56.050Z,29.50
2022-08-12T14:52:44.000Z,29.50
2022-08-12T14:57:19.826Z,29.60
2022-08-12T15:00:12.653Z,29.50
2022-08-12T15:02:42.680Z,29.40
2022-08-12T15:05:10.640Z,29.40
2022-08-12T15:08:05.011Z,29.30
2022-08-12T15:10:38.133Z,29.20
2022-08-12T15:13:11.571Z,29.00
2022-08-12T15:15:45.975Z,28.90
2022-08-12T15:18:23.548Z,28.80
2022-08-12T15:20:55.541Z,28.80
2022-08-12T15:23:29.072Z,28.80
2022-08-12T15:26:05.434Z,28.80
2022-08-12T15:28:36.102Z,28.80
2022-08-12T15:31:27.973Z,28.90
2022-08-12T15:33:57.914Z,28.90
2022-08-12T15:36:54.422Z,28.80
2022-08-12T15:39:16.373Z,28.60
2022-08-12T15:41:49.294Z,28.40
2022-08-12T15:44:38.386Z,28.30
2022-08-12T15:47:07.197Z,28.20
2022-08-12T15:49:54.728Z,28.20
2022-08-12T15:52:30.932Z,28.30
2022-08-12T15:55:06.094Z,28.40
2022-08-12T15:57:40.146Z,28.50
2022-08-12T16:00:09.463Z,28.50
2022-08-12T16:03:00.087Z,28.50
2022-08-12T16:06:17.106Z,28.50
2022-08-12T16:08:27.685Z,28.50
2022-08-12T16:10:58.045Z,28.60
2022-08-12T16:13:34.326Z,28.60
2022-08-12T16:16:12.501Z,28.60
2022-08-12T16:19:01.905Z,28.60
2022-08-12T16:21:51.788Z,28.50
2022-08-12T16:24:24.777Z,28.50
2022-08-12T16:26:53.999Z,28.50
2022-08-12T16:29:52.114Z,28.40
2022-08-12T16:32:19.944Z,28.40
2022-08-12T16:34:55.742Z,28.30
2022-08-12T16:37:32.374Z,28.20
2022-08-12T16:40:14.737Z,28.20
2022-08-12T16:42:54.380Z,28.10
2022-08-12T16:46:05.169Z,28.10
2022-08-12T16:48:34.745Z,27.90
2022-08-12T16:51:12.728Z,27.80
2022-08-12T16:53:43.905Z,27.80
2022-08-12T16:56:17.425Z,27.70
2022-08-12T16:58:47.406Z,27.70
2022-08-12T17:01:19.916Z,27.70
2022-08-12T17:04:09.852Z,27.70
2022-08-12T17:06:44.178Z,27.60
2022-08-12T17:09:16.994Z,27.50
2022-08-12T17:11:49.151Z,27.40
2022-08-12T17:14:23.346Z,27.30
2022-08-12T17:16:55.520Z,27.30
2022-08-12T17:20:29.372Z,27.30
2022-08-12T17:22:21.667Z,27.20
2022-08-12T17:24:55.852Z,27.20
2022-08-12T17:27:26.625Z,27.10
2022-08-12T17:30:04.741Z,27.00
2022-08-12T17:32:35.073Z,27.00
2022-08-12T17:35:23.063Z,27.00
2022-08-12T17:38:06.569Z,27.00
2022-08-12T17:40:37.439Z,27.00
2022-08-12T17:43:56.902Z,27.00
2022-08-12T17:45:58.752Z,26.90
2022-08-12T17:48:35.085Z,26.80
2022-08-12T17:51:15.380Z,26.70
2022-08-12T17:54:10.877Z,26.70
2022-08-12T17:56:37.621Z,26.70
2022-08-12T17:59:09.799Z,26.70
2022-08-12T18:01:45.193Z,26.60
2022-08-12T18:04:23.011Z,26.60
2022-08-12T18:07:02.463Z,26.60
2022-08-12T18:09:37.959Z,26.60
2022-08-12T18:12:34.446Z,26.60
2022-08-12T18:15:08.839Z,26.60
2022-08-12T18:17:46.996Z,26.50
2022-08-12T18:20:18.275Z,26.50
2022-08-12T18:22:47.385Z,26.40
2022-08-12T18:26:16.014Z,26.40
2022-08-12T18:28:29.016Z,26.40
2022-08-12T18:31:03.201Z,26.30
2022-08-12T18:33:41.713Z,26.20
2022-08-12T18:36:14.291Z,26.20
2022-08-12T18:38:52.974Z,26.20
2022-08-12T18:41:36.149Z,26.10
2022-08-12T18:44:12.392Z,26.00
2022-08-12T18:46:55.461Z,25.90
2022-08-12T18:49:38.694Z,25.90
2022-08-12T18:52:11.789Z,25.90
2022-08-12T18:54:49.733Z,25.80
2022-08-12T18:57:45.970Z,25.70
2022-08-12T19:00:21.301Z,25.60
2022-08-12T19:02:50.887Z,25.50
2022-08-12T19:05:18.166Z,25.50
2022-08-12T19:08:00.649Z,25.40
2022-08-12T19:10:32.355Z,25.40
2022-08-12T19:13:24.205Z,25.20
2022-08-12T19:16:01.748Z,25.20
2022-08-12T19:18:31.858Z,25.10
2022-08-12T19:21:06.494Z,25.00
2022-08-12T19:23:39.099Z,25.00
2022-08-12T19:26:10.694Z,24.90
2022-08-12T19:28:40.706Z,24.90
2022-08-12T19:31:44.850Z,24.80
2022-08-12T19:38:02.719Z,24.80
2022-08-12T19:40:31.560Z,24.70
2022-08-12T19:43:19.062Z,24.70
2022-08-12T19:45:56.722Z,24.70
2022-08-12T19:48:30.698Z,24.70
2022-08-12T19:51:01.609Z,24.70
2022-08-12T19:53:57.528Z,24.60
2022-08-12T19:56:30.222Z,24.60
2022-08-12T19:59:19.154Z,24.60
2022-08-12T20:02:02.473Z,24.60
2022-08-12T20:04:32.756Z,24.50
2022-08-12T20:07:00.405Z,24.50
2022-08-12T20:09:28.451Z,24.50
2022-08-12T20:12:12.662Z,24.40
2022-08-12T20:14:48.305Z,24.40
2022-08-12T20:17:16.587Z,24.40
2022-08-12T20:20:16.961Z,24.30
2022-08-12T20:22:42.582Z,24.30
2022-08-12T20:25:12.666Z,24.30
2022-08-12T20:28:02.462Z,24.30
2022-08-12T20:30:52.555Z,24.20
2022-08-12T20:33:23.310Z,24.20
2022-08-12T20:36:06.496Z,24.20
2022-08-12T20:38:54.168Z,24.20
2022-08-12T20:41:25.200Z,24.10
2022-08-12T20:43:55.158Z,24.10
2022-08-12T20:46:31.763Z,24.10
2022-08-12T20:49:17.671Z,24.10
2022-08-12T20:51:55.175Z,24.10
2022-08-12T20:54:22.512Z,24.10
2022-08-12T20:56:49.810Z,24.00
2022-08-12T20:59:20.230Z,24.10
2022-08-12T21:01:49.080Z,24.00
2022-08-12T21:04:37.148Z,24.00
2022-08-12T21:07:09.343Z,24.00
2022-08-12T21:09:41.508Z,24.00
2022-08-12T21:12:28.456Z,24.00
2022-08-12T21:15:17.015Z,24.00
2022-08-12T21:18:09.167Z,23.90
2022-08-12T21:20:44.472Z,23.90
2022-08-12T21:23:11.615Z,23.90
2022-08-12T21:25:45.129Z,23.80
2022-08-12T21:28:14.490Z,23.80
2022-08-12T21:30:43.569Z,23.80
2022-08-12T21:33:45.573Z,23.80
2022-08-12T21:36:22.601Z,23.80
2022-08-12T21:39:18.074Z,23.80
2022-08-12T21:41:50.264Z,23.80
2022-08-12T21:44:24.749Z,23.80
2022-08-12T21:47:20.351Z,23.80
2022-08-12T21:50:03.974Z,23.80
2022-08-12T21:52:48.827Z,23.80
2022-08-12T21:55:19.571Z,23.70
2022-08-12T21:57:54.064Z,23.70
2022-08-12T22:00:33.380Z,23.70
2022-08-12T22:04:01.756Z,23.70
2022-08-12T22:06:26.109Z,23.70
2022-08-12T22:09:15.264Z,23.60
2022-08-12T22:11:44.002Z,23.60
2022-08-12T22:14:21.560Z,23.60
2022-08-12T22:16:51.666Z,23.60
2022-08-12T22:19:22.975Z,23.60
2022-08-12T22:21:53.226Z,23.60
2022-08-12T22:24:26.468Z,23.60
2022-08-12T22:27:14.427Z,23.60
2022-08-12T22:30:06.961Z,23.60
2022-08-12T22:32:34.419Z,23.60
2022-08-12T22:35:22.315Z,23.60
2022-08-12T22:37:53.572Z,23.60
2022-08-12T22:40:23.792Z,23.50
2022-08-12T22:43:09.275Z,23.50
2022-08-12T22:46:01.869Z,23.40
2022-08-12T22:48:28.976Z,23.40
2022-08-12T22:50:59.376Z,23.40
2022-08-12T22:53:36.479Z,23.40
2022-08-12T22:56:06.995Z,23.40
2022-08-12T22:58:41.491Z,23.40
2022-08-12T23:01:11.221Z,23.40
2022-08-12T23:03:48.788Z,23.50
2022-08-12T23:06:19.554Z,23.50
2022-08-12T23:08:47.975Z,23.50
2022-08-12T23:11:16.161Z,23.50
2022-08-12T23:13:55.262Z,23.50
2022-08-12T23:16:31.911Z,23.50
2022-08-12T23:19:17.785Z,23.40
2022-08-12T23:22:05.239Z,23.50
2022-08-12T23:24:56.189Z,23.50
2022-08-12T23:27:52.214Z,23.50
2022-08-12T23:30:31.120Z,23.50
2022-08-12T23:33:01.475Z,23.50
2022-08-12T23:35:45.943Z,23.50
2022-08-12T23:38:31.068Z,23.60
2022-08-12T23:41:00.858Z,23.60
2022-08-12T23:43:38.988Z,23.60
2022-08-12T23:46:18.467Z,23.60
2022-08-12T23:48:48.144Z,23.60
2022-08-12T23:51:25.448Z,23.70
2022-08-12T23:53:59.803Z,23.70
2022-08-12T23:56:33.015Z,23.70
2022-08-12T23:59:03.177Z,23.70
